createdAt,value
2017-03-21T00:00:31.410Z,10.85
2017-03-21T00:01:31.453Z,10.9
2017-03-21T00:02:31.480Z,10.98
2017-03-21T00:03:31.515Z,10.88
2017-03-21T00:04:31.538Z,10.98
2017-03-21T00:05:31.567Z,10.98
2017-03-21T00:06:31.589Z,10.91
2017-03-21T00:07:31.635Z,11.02
2017-03-21T00:08:31.698Z,11.09
2017-03-21T00:09:31.689Z,10.98
2017-03-21T00:10:31.714Z,11.02
2017-03-21T00:11:31.752Z,11.02
2017-03-21T00:12:31.789Z,11.08
2017-03-21T00:13:31.823Z,11.06
2017-03-21T00:14:31.843Z,11
2017-03-21T00:15:31.874Z,10.98
2017-03-21T00:16:31.916Z,11.09
2017-03-21T00:17:31.945Z,11.08
2017-03-21T00:18:31.976Z,11.1
2017-03-21T00:19:31.998Z,11.06
2017-03-21T00:20:32.026Z,11.13
2017-03-21T00:21:32.059Z,11.13
2017-03-21T00:22:32.090Z,11.08
2017-03-21T00:23:32.125Z,11.15
2017-03-21T00:24:32.157Z,11.09
2017-03-21T00:25:32.168Z,11.15
2017-03-21T00:26:32.215Z,11.15
2017-03-21T00:27:32.250Z,11.23
2017-03-21T00:28:32.279Z,11.21
2017-03-21T00:29:32.328Z,11.1
2017-03-21T00:30:32.335Z,11.15
2017-03-21T00:31:32.375Z,11.15
2017-03-21T00:32:32.390Z,11.15
2017-03-21T00:33:32.441Z,11.23
2017-03-21T00:34:32.469Z,11.18
2017-03-21T00:35:32.489Z,11.23
2017-03-21T00:36:32.522Z,11.16
2017-03-21T00:37:32.550Z,11.13
2017-03-21T00:38:32.597Z,11.2
2017-03-21T00:39:32.613Z,11.1
2017-03-21T00:40:32.636Z,11.15
2017-03-21T00:41:32.678Z,11.12
2017-03-21T00:42:32.718Z,11.12
2017-03-21T00:43:32.736Z,11.08
2017-03-21T00:44:32.771Z,11.1
2017-03-21T00:45:32.804Z,11.1
2017-03-21T00:46:32.830Z,11.08
2017-03-21T00:47:32.868Z,11.09
2017-03-21T00:48:32.893Z,11.12
2017-03-21T00:49:32.921Z,11.12
2017-03-21T00:50:32.953Z,11.09
2017-03-21T00:51:32.987Z,11.1
2017-03-21T00:52:32.999Z,11.16
2017-03-21T00:53:33.050Z,11.09
2017-03-21T00:54:33.117Z,11.03
2017-03-21T00:55:33.100Z,11.09
2017-03-21T00:56:33.137Z,11.15
2017-03-21T00:57:33.173Z,10.98
2017-03-21T00:58:33.209Z,11.06
2017-03-21T00:59:33.215Z,10.97
2017-03-21T01:00:33.257Z,11.09
2017-03-21T01:01:33.290Z,10.98
2017-03-21T01:02:33.334Z,10.98
2017-03-21T01:03:33.355Z,10.92
2017-03-21T01:04:33.421Z,11
2017-03-21T01:05:33.413Z,11.02
2017-03-21T01:06:33.426Z,10.97
2017-03-21T01:07:33.476Z,10.92
2017-03-21T01:08:33.510Z,10.95
2017-03-21T01:09:33.538Z,11.08
2017-03-21T01:10:33.561Z,11.08
2017-03-21T01:11:33.603Z,11.02
2017-03-21T01:12:33.629Z,11.13
2017-03-21T01:13:33.654Z,11.08
2017-03-21T01:14:33.692Z,11.1
2017-03-21T01:15:33.714Z,11.05
2017-03-21T01:16:33.732Z,11.12
2017-03-21T01:17:33.787Z,11.08
2017-03-21T01:18:33.822Z,11.13
2017-03-21T01:19:33.829Z,11.09
2017-03-21T01:20:33.869Z,11.1
2017-03-21T01:21:33.900Z,11.06
2017-03-21T01:22:33.935Z,11.05
2017-03-21T01:23:33.955Z,11.1
2017-03-21T01:24:33.995Z,11
2017-03-21T01:25:34.030Z,11
2017-03-21T01:26:34.054Z,11.03
2017-03-21T01:27:34.086Z,11.06
2017-03-21T01:28:34.136Z,11.02
2017-03-21T01:29:34.135Z,11.06
2017-03-21T01:30:34.167Z,11
2017-03-21T01:31:34.209Z,11.1
2017-03-21T01:32:34.246Z,11.03
2017-03-21T01:33:34.265Z,11.08
2017-03-21T01:34:34.307Z,11.13
2017-03-21T01:35:34.336Z,11.12
2017-03-21T01:36:34.365Z,11.08
2017-03-21T01:37:34.397Z,11.12
2017-03-21T01:38:34.427Z,11.1
2017-03-21T01:39:34.461Z,11.08
2017-03-21T01:40:34.481Z,11.09
2017-03-21T01:41:34.525Z,11.16
2017-03-21T01:42:34.533Z,11.09
2017-03-21T01:43:34.589Z,11.06
2017-03-21T01:44:34.618Z,10.98
2017-03-21T01:45:34.639Z,11.03
2017-03-21T01:46:34.677Z,11.13
2017-03-21T01:47:34.680Z,11.08
2017-03-21T01:48:34.739Z,11.12
2017-03-21T01:49:34.765Z,11.09
2017-03-21T01:50:34.797Z,11.12
2017-03-21T01:51:34.832Z,11.05
2017-03-21T01:52:34.858Z,11.18
2017-03-21T01:53:34.889Z,11.08
2017-03-21T01:54:34.916Z,11.03
2017-03-21T01:55:34.941Z,11.15
2017-03-21T01:56:34.964Z,11.08
2017-03-21T01:57:35.012Z,11.06
2017-03-21T01:58:35.056Z,11.12
2017-03-21T01:59:35.071Z,11.16
2017-03-21T02:00:35.084Z,11.08
2017-03-21T02:01:35.122Z,11.1
2017-03-21T02:02:35.167Z,11.03
2017-03-21T02:03:35.203Z,11.1
2017-03-21T02:04:35.227Z,11.06
2017-03-21T02:05:35.303Z,11.1
2017-03-21T02:06:35.278Z,11.06
2017-03-21T02:07:35.305Z,11.1
2017-03-21T02:08:35.351Z,11.12
2017-03-21T02:09:35.379Z,11.1
2017-03-21T02:10:35.407Z,11.08
2017-03-21T02:11:35.438Z,11.1
2017-03-21T02:12:35.463Z,11.12
2017-03-21T02:13:35.505Z,11.13
2017-03-21T02:14:35.537Z,11.12
2017-03-21T02:15:35.570Z,11.09
2017-03-21T02:16:35.588Z,11.16
2017-03-21T02:17:35.628Z,11.15
2017-03-21T02:18:35.659Z,11.1
2017-03-21T02:19:35.693Z,11.06
2017-03-21T02:20:35.706Z,11.09
2017-03-21T02:21:35.753Z,11
2017-03-21T02:22:35.777Z,11.15
2017-03-21T02:23:35.797Z,11.06
2017-03-21T02:24:35.837Z,11.09
2017-03-21T02:25:35.859Z,11.08
2017-03-21T02:26:35.893Z,11.09
2017-03-21T02:27:35.930Z,11.09
2017-03-21T02:28:35.969Z,11.05
2017-03-21T02:29:36.002Z,11.05
2017-03-21T02:30:36.026Z,11.03
2017-03-21T02:31:36.053Z,11
2017-03-21T02:32:36.091Z,11.02
2017-03-21T02:33:36.120Z,11.03
2017-03-21T02:34:36.143Z,11.05
2017-03-21T02:35:36.179Z,10.95
2017-03-21T02:36:36.219Z,10.97
2017-03-21T02:37:36.238Z,10.95
2017-03-21T02:38:36.275Z,11.06
2017-03-21T02:39:36.295Z,11.02
2017-03-21T02:40:36.332Z,11.06
2017-03-21T02:41:36.366Z,11.05
2017-03-21T02:42:36.394Z,11
2017-03-21T02:43:36.404Z,11.05
2017-03-21T02:44:36.496Z,10.98
2017-03-21T02:45:36.484Z,11.05
2017-03-21T02:46:36.502Z,11.09
2017-03-21T02:47:36.537Z,10.94
2017-03-21T02:48:36.580Z,10.95
2017-03-21T02:49:36.613Z,11
2017-03-21T02:50:36.634Z,11.05
2017-03-21T02:51:36.667Z,11.05
2017-03-21T02:52:36.693Z,11.05
2017-03-21T02:53:36.731Z,11
2017-03-21T02:54:36.760Z,10.94
2017-03-21T02:55:36.791Z,10.95
2017-03-21T02:56:36.815Z,10.97
2017-03-21T02:57:36.840Z,10.95
2017-03-21T02:58:36.889Z,10.94
2017-03-21T02:59:36.905Z,10.9
2017-03-21T03:00:36.951Z,11.08
2017-03-21T03:01:37.217Z,10.97
2017-03-21T03:02:37.019Z,10.95
2017-03-21T03:03:37.030Z,11.02
2017-03-21T03:04:37.068Z,10.98
2017-03-21T03:05:37.107Z,10.98
2017-03-21T03:06:37.133Z,10.98
2017-03-21T03:07:37.162Z,10.94
2017-03-21T03:08:37.187Z,10.91
2017-03-21T03:09:37.228Z,10.9
2017-03-21T03:10:37.248Z,10.94
2017-03-21T03:11:37.274Z,10.88
2017-03-21T03:12:37.317Z,10.9
2017-03-21T03:13:37.338Z,10.94
2017-03-21T03:14:37.345Z,11.02
2017-03-21T03:15:37.404Z,11.02
2017-03-21T03:16:37.415Z,10.98
2017-03-21T03:17:37.474Z,10.98
2017-03-21T03:18:37.514Z,10.94
2017-03-21T03:19:37.531Z,10.95
2017-03-21T03:20:37.561Z,10.92
2017-03-21T03:21:37.596Z,10.79
2017-03-21T03:22:37.609Z,10.88
2017-03-21T03:23:37.662Z,10.94
2017-03-21T03:24:37.689Z,10.88
2017-03-21T03:25:37.711Z,10.95
2017-03-21T03:26:37.744Z,10.9
2017-03-21T03:27:37.759Z,10.92
2017-03-21T03:28:37.803Z,10.88
2017-03-21T03:29:37.835Z,10.94
2017-03-21T03:30:37.891Z,11.02
2017-03-21T03:31:37.896Z,10.91
2017-03-21T03:32:37.924Z,10.95
2017-03-21T03:33:37.951Z,10.92
2017-03-21T03:34:37.983Z,10.98
2017-03-21T03:35:38.009Z,10.94
2017-03-21T03:36:38.045Z,10.9
2017-03-21T03:37:38.063Z,10.94
2017-03-21T03:38:38.117Z,10.91
2017-03-21T03:39:38.126Z,10.9
2017-03-21T03:40:38.163Z,10.87
2017-03-21T03:41:38.210Z,10.85
2017-03-21T03:42:38.234Z,10.88
2017-03-21T03:43:38.253Z,10.88
2017-03-21T03:44:38.282Z,10.87
2017-03-21T03:45:38.319Z,10.85
2017-03-21T03:46:38.353Z,10.84
2017-03-21T03:47:38.379Z,10.87
2017-03-21T03:48:38.419Z,10.84
2017-03-21T03:49:38.446Z,10.88
2017-03-21T03:50:38.475Z,10.84
2017-03-21T03:51:38.502Z,10.87
2017-03-21T03:52:38.537Z,10.94
2017-03-21T03:53:38.566Z,10.87
2017-03-21T03:54:38.585Z,10.87
2017-03-21T03:55:38.619Z,10.79
2017-03-21T03:56:38.647Z,10.9
2017-03-21T03:57:38.690Z,10.79
2017-03-21T03:58:38.722Z,10.87
2017-03-21T03:59:38.732Z,10.85
2017-03-21T04:00:38.762Z,10.83
2017-03-21T04:01:38.806Z,10.8
2017-03-21T04:02:38.827Z,10.84
2017-03-21T04:03:38.864Z,10.8
2017-03-21T04:04:38.889Z,10.83
2017-03-21T04:05:38.906Z,10.77
2017-03-21T04:06:38.957Z,10.73
2017-03-21T04:07:38.994Z,10.8
2017-03-21T04:08:39.031Z,10.77
2017-03-21T04:09:39.054Z,10.79
2017-03-21T04:10:39.062Z,10.88
2017-03-21T04:11:39.120Z,10.77
2017-03-21T04:12:39.147Z,10.8
2017-03-21T04:13:39.163Z,10.73
2017-03-21T04:14:39.207Z,10.76
2017-03-21T04:15:39.234Z,10.84
2017-03-21T04:16:39.297Z,10.84
2017-03-21T04:17:39.305Z,10.84
2017-03-21T04:18:39.331Z,10.76
2017-03-21T04:19:39.363Z,10.72
2017-03-21T04:20:39.407Z,10.76
2017-03-21T04:21:39.424Z,10.72
2017-03-21T04:22:39.449Z,10.66
2017-03-21T04:23:39.483Z,10.66
2017-03-21T04:24:39.510Z,10.67
2017-03-21T04:25:39.526Z,10.7
2017-03-21T04:26:39.565Z,10.67
2017-03-21T04:27:39.611Z,10.65
2017-03-21T04:28:39.630Z,10.7
2017-03-21T04:29:39.663Z,10.72
2017-03-21T04:30:39.686Z,10.63
2017-03-21T04:31:39.704Z,10.67
2017-03-21T04:32:39.767Z,10.65
2017-03-21T04:33:39.781Z,10.65
2017-03-21T04:34:39.817Z,10.66
2017-03-21T04:35:39.835Z,10.61
2017-03-21T04:36:39.862Z,10.61
2017-03-21T04:37:39.894Z,10.69
2017-03-21T04:38:39.926Z,10.66
2017-03-21T04:39:39.965Z,10.58
2017-03-21T04:40:39.998Z,10.58
2017-03-21T04:41:40.025Z,10.52
2017-03-21T04:42:40.067Z,10.59
2017-03-21T04:43:40.089Z,10.58
2017-03-21T04:44:40.118Z,10.54
2017-03-21T04:45:40.147Z,10.47
2017-03-21T04:46:40.192Z,10.58
2017-03-21T04:47:40.206Z,10.52
2017-03-21T04:48:40.229Z,10.54
2017-03-21T04:49:40.279Z,10.57
2017-03-21T04:50:40.296Z,10.49
2017-03-21T04:51:40.335Z,10.57
2017-03-21T04:52:40.345Z,10.51
2017-03-21T04:53:40.401Z,10.58
2017-03-21T04:54:40.431Z,10.57
2017-03-21T04:55:40.434Z,10.58
2017-03-21T04:56:40.482Z,10.65
2017-03-21T04:57:40.522Z,10.65
2017-03-21T04:58:40.545Z,10.63
2017-03-21T04:59:40.578Z,10.55
2017-03-21T05:00:40.648Z,10.61
2017-03-21T05:01:40.666Z,10.59
2017-03-21T05:02:40.712Z,10.63
2017-03-21T05:03:40.756Z,10.55
2017-03-21T05:04:40.777Z,10.52
2017-03-21T05:05:40.803Z,10.54
2017-03-21T05:06:40.839Z,10.52
2017-03-21T05:07:40.872Z,10.57
2017-03-21T05:08:40.896Z,10.44
2017-03-21T05:09:40.925Z,10.41
2017-03-21T05:10:40.960Z,10.39
2017-03-21T05:11:40.965Z,10.47
2017-03-21T05:12:41.017Z,10.49
2017-03-21T05:13:41.169Z,10.32
2017-03-21T05:14:41.070Z,10.32
2017-03-21T05:15:41.110Z,10.29
2017-03-21T05:16:41.132Z,10.32
2017-03-21T05:17:41.171Z,10.35
2017-03-21T05:18:41.212Z,10.21
2017-03-21T05:19:41.223Z,10.31
2017-03-21T05:20:41.262Z,10.33
2017-03-21T05:21:41.303Z,10.32
2017-03-21T05:22:41.303Z,10.38
2017-03-21T05:23:41.354Z,10.33
2017-03-21T05:24:41.352Z,10.41
2017-03-21T05:25:41.411Z,10.46
2017-03-21T05:26:41.454Z,10.46
2017-03-21T05:27:41.443Z,10.38
2017-03-21T05:28:41.505Z,10.42
2017-03-21T05:29:41.534Z,10.51
2017-03-21T05:30:41.581Z,10.54
2017-03-21T05:31:41.573Z,10.54
2017-03-21T05:32:41.624Z,10.55
2017-03-21T05:33:41.654Z,10.51
2017-03-21T05:34:41.671Z,10.58
2017-03-21T05:35:41.816Z,10.51
2017-03-21T05:36:41.726Z,10.57
2017-03-21T05:37:41.825Z,10.58
2017-03-21T05:38:41.804Z,10.55
2017-03-21T05:39:41.833Z,10.57
2017-03-21T05:40:41.967Z,10.58
2017-03-21T05:41:41.865Z,10.57
2017-03-21T05:42:41.936Z,10.59
2017-03-21T05:43:41.950Z,10.55
2017-03-21T05:44:41.962Z,10.55
2017-03-21T05:45:42.018Z,10.59
2017-03-21T05:46:42.048Z,10.58
2017-03-21T05:47:42.129Z,10.57
2017-03-21T05:48:42.092Z,10.52
2017-03-21T05:49:42.137Z,10.54
2017-03-21T05:50:42.133Z,10.55
2017-03-21T05:51:42.197Z,10.61
2017-03-21T05:52:42.234Z,10.59
2017-03-21T05:53:42.260Z,10.69
2017-03-21T05:54:42.359Z,10.57
2017-03-21T05:55:42.378Z,10.55
2017-03-21T05:56:42.339Z,10.65
2017-03-21T05:57:42.384Z,10.61
2017-03-21T05:58:42.409Z,10.63
2017-03-21T05:59:42.445Z,10.73
2017-03-21T06:00:42.484Z,10.79
2017-03-21T06:01:42.501Z,10.92
2017-03-21T06:02:42.539Z,10.94
2017-03-21T06:03:42.571Z,10.98
2017-03-21T06:04:42.584Z,11.1
2017-03-21T06:05:42.632Z,11.1
2017-03-21T06:06:42.732Z,11.15
2017-03-21T06:07:42.649Z,11.03
2017-03-21T06:08:42.733Z,11.13
2017-03-21T06:09:42.738Z,11.18
2017-03-21T06:10:42.759Z,11.18
2017-03-21T06:11:42.802Z,11.16
2017-03-21T06:12:42.841Z,11.21
2017-03-21T06:13:42.901Z,11.27
2017-03-21T06:14:42.927Z,11.23
2017-03-21T06:15:42.943Z,11.33
2017-03-21T06:16:43.063Z,11.34
2017-03-21T06:17:42.979Z,11.48
2017-03-21T06:18:43.030Z,11.48
2017-03-21T06:19:43.044Z,11.57
2017-03-21T06:20:43.076Z,11.6
2017-03-21T06:21:43.260Z,11.61
2017-03-21T06:22:43.154Z,11.7
2017-03-21T06:23:43.184Z,11.71
2017-03-21T06:24:43.201Z,11.73
2017-03-21T06:25:43.244Z,11.85
2017-03-21T06:26:43.377Z,12
2017-03-21T06:27:43.313Z,12.07
2017-03-21T06:28:43.322Z,12.08
2017-03-21T06:29:43.362Z,12.19
2017-03-21T06:30:43.406Z,12.08
2017-03-21T06:31:43.428Z,12.03
2017-03-21T06:32:43.486Z,12.2
2017-03-21T06:33:43.464Z,12.26
2017-03-21T06:34:43.505Z,12.34
2017-03-21T06:35:43.562Z,12.44
2017-03-21T06:36:43.584Z,12.51
2017-03-21T06:37:43.621Z,12.59
2017-03-21T06:38:43.642Z,12.74
2017-03-21T06:39:43.684Z,12.69
2017-03-21T06:40:43.719Z,12.76
2017-03-21T06:41:43.724Z,12.73
2017-03-21T06:42:43.780Z,12.71
2017-03-21T06:43:43.793Z,12.73
2017-03-21T06:44:43.843Z,12.74
2017-03-21T06:45:43.873Z,12.71
2017-03-21T06:46:43.914Z,12.65
2017-03-21T06:47:43.927Z,12.61
2017-03-21T06:48:43.975Z,12.55
2017-03-21T06:49:44.197Z,12.45
2017-03-21T06:50:44.227Z,12.26
2017-03-21T06:51:44.048Z,12.25
2017-03-21T06:52:44.099Z,12.16
2017-03-21T06:53:44.135Z,12.05
2017-03-21T06:54:44.367Z,11.91
2017-03-21T06:55:44.198Z,11.85
2017-03-21T06:56:44.211Z,11.85
2017-03-21T06:57:44.275Z,11.68
2017-03-21T06:58:44.311Z,11.66
2017-03-21T06:59:44.299Z,11.59
2017-03-21T07:00:44.391Z,11.46
2017-03-21T07:01:44.381Z,11.46
2017-03-21T07:02:44.430Z,11.46
2017-03-21T07:03:44.429Z,11.3
2017-03-21T07:04:44.451Z,11.35
2017-03-21T07:05:44.502Z,11.24
2017-03-21T07:06:44.518Z,11.28
2017-03-21T07:07:44.540Z,11.18
2017-03-21T07:08:44.594Z,11.15
2017-03-21T07:09:44.638Z,11.05
2017-03-21T07:10:44.649Z,11.08
2017-03-21T07:11:44.651Z,10.88
2017-03-21T07:12:44.726Z,10.85
2017-03-21T07:13:44.748Z,10.66
2017-03-21T07:14:44.787Z,10.61
2017-03-21T07:15:44.809Z,10.49
2017-03-21T07:16:44.851Z,10.51
2017-03-21T07:17:44.843Z,10.51
2017-03-21T07:18:44.913Z,10.36
2017-03-21T07:19:44.959Z,10.52
2017-03-21T07:20:45.068Z,10.51
2017-03-21T07:21:45.018Z,10.42
2017-03-21T07:22:45.031Z,10.42
2017-03-21T07:23:45.076Z,10.41
2017-03-21T07:24:45.094Z,10.44
2017-03-21T07:25:45.321Z,10.47
2017-03-21T07:26:45.157Z,10.54
2017-03-21T07:27:45.221Z,10.38
2017-03-21T07:28:45.205Z,10.39
2017-03-21T07:29:45.243Z,10.47
2017-03-21T07:30:45.253Z,10.55
2017-03-21T07:31:45.285Z,10.57
2017-03-21T07:32:45.331Z,10.52
2017-03-21T07:33:45.360Z,10.65
2017-03-21T07:34:45.384Z,10.69
2017-03-21T07:35:45.427Z,10.88
2017-03-21T07:36:45.461Z,11.08
2017-03-21T07:37:45.472Z,11.21
2017-03-21T07:38:45.515Z,11.35
2017-03-21T07:39:45.549Z,11.73
2017-03-21T07:40:45.584Z,11.95
2017-03-21T07:41:45.620Z,12.56
2017-03-21T07:42:45.653Z,12.96
2017-03-21T07:43:45.680Z,13.48
2017-03-21T07:44:45.692Z,13.78
2017-03-21T07:45:45.722Z,14.12
2017-03-21T07:46:45.771Z,14.45
2017-03-21T07:47:45.811Z,14.71
2017-03-21T07:48:45.810Z,14.93
2017-03-21T07:49:45.862Z,15.19
2017-03-21T07:50:45.894Z,15.4
2017-03-21T07:51:45.931Z,15.73
2017-03-21T07:52:45.979Z,15.95
2017-03-21T07:53:46.004Z,16.13
2017-03-21T07:54:46.019Z,16.4
2017-03-21T07:55:46.064Z,16.66
2017-03-21T07:56:46.102Z,16.73
2017-03-21T07:57:46.123Z,16.73
2017-03-21T07:58:46.149Z,16.67
2017-03-21T07:59:46.233Z,16.49
2017-03-21T08:00:46.235Z,16.34
2017-03-21T08:01:46.271Z,16.08
2017-03-21T08:02:46.658Z,15.8
2017-03-21T08:03:46.315Z,15.59
2017-03-21T08:04:46.367Z,15.38
2017-03-21T08:05:46.432Z,15.31
2017-03-21T08:06:46.402Z,15.2
2017-03-21T08:07:46.479Z,14.95
2017-03-21T08:08:46.502Z,14.87
2017-03-21T08:09:46.517Z,14.71
2017-03-21T08:10:46.574Z,14.48
2017-03-21T08:11:46.609Z,14.34
2017-03-21T08:12:46.629Z,14.3
2017-03-21T08:13:46.650Z,14.16
2017-03-21T08:14:46.705Z,14.12
2017-03-21T08:15:46.715Z,14.11
2017-03-21T08:16:46.743Z,14.08
2017-03-21T08:17:46.831Z,14.02
2017-03-21T08:18:46.831Z,14.11
2017-03-21T08:19:46.883Z,14.01
2017-03-21T08:20:46.914Z,13.93
2017-03-21T08:21:46.919Z,13.94
2017-03-21T08:22:46.995Z,13.9
2017-03-21T08:23:47.014Z,14.49
2017-03-21T08:24:47.048Z,15.83
2017-03-21T08:25:47.084Z,17.46
2017-03-21T08:26:47.098Z,19.15
2017-03-21T08:27:47.144Z,20.27
2017-03-21T08:28:47.193Z,20.93
2017-03-21T08:29:47.181Z,20.86
2017-03-21T08:30:47.248Z,20.41
2017-03-21T08:31:47.298Z,20.32
2017-03-21T08:32:47.315Z,20.3
2017-03-21T08:33:47.365Z,20.05
2017-03-21T08:34:47.378Z,20.25
2017-03-21T08:35:47.390Z,20.78
2017-03-21T08:36:47.469Z,21.34
2017-03-21T08:37:47.497Z,21.3
2017-03-21T08:38:47.536Z,20.86
2017-03-21T08:39:47.592Z,20.29
2017-03-21T08:40:47.602Z,19.74
2017-03-21T08:41:47.652Z,19.38
2017-03-21T08:42:47.688Z,19.17
2017-03-21T08:43:47.714Z,18.93
2017-03-21T08:44:47.772Z,18.65
2017-03-21T08:45:47.799Z,18.61
2017-03-21T08:46:47.838Z,18.79
2017-03-21T08:47:47.873Z,19.12
2017-03-21T08:48:47.890Z,19.72
2017-03-21T08:49:47.940Z,20.78
2017-03-21T08:50:47.993Z,21.4
2017-03-21T08:51:48.016Z,21.68
2017-03-21T08:52:48.064Z,21.25
2017-03-21T08:53:48.214Z,20.05
2017-03-21T08:54:48.137Z,19.06
2017-03-21T08:55:48.167Z,18.19
2017-03-21T08:56:48.186Z,17.36
2017-03-21T08:57:48.250Z,16.84
2017-03-21T08:58:48.387Z,16.26
2017-03-21T08:59:48.303Z,15.75
2017-03-21T09:00:48.355Z,15.18
2017-03-21T09:01:48.394Z,14.69
2017-03-21T09:02:48.424Z,14.53
2017-03-21T09:03:48.618Z,14.13
2017-03-21T09:04:48.502Z,14.01
2017-03-21T09:05:48.521Z,13.81
2017-03-21T09:06:48.570Z,13.6
2017-03-21T09:07:48.606Z,13.62
2017-03-21T09:08:48.651Z,13.47
2017-03-21T09:09:48.670Z,13.5
2017-03-21T09:10:48.707Z,13.51
2017-03-21T09:11:48.756Z,13.51
2017-03-21T09:12:48.759Z,13.47
2017-03-21T09:13:48.813Z,13.47
2017-03-21T09:14:49.060Z,13.44
2017-03-21T09:15:49.118Z,13.48
2017-03-21T09:16:49.013Z,13.62
2017-03-21T09:17:49.145Z,13.63
2017-03-21T09:18:48.983Z,13.87
2017-03-21T09:19:49.005Z,13.95
2017-03-21T09:20:49.059Z,14.06
2017-03-21T09:21:49.085Z,13.88
2017-03-21T09:22:49.112Z,14.05
2017-03-21T09:23:49.157Z,14.09
2017-03-21T09:24:49.179Z,14.09
2017-03-21T09:25:49.198Z,14.21
2017-03-21T09:26:49.252Z,14.33
2017-03-21T09:27:49.256Z,14.39
2017-03-21T09:28:49.314Z,14.51
2017-03-21T09:29:49.327Z,14.63
2017-03-21T09:30:49.391Z,14.77
2017-03-21T09:31:49.425Z,14.7
2017-03-21T09:32:49.455Z,14.71
2017-03-21T09:33:49.492Z,14.63
2017-03-21T09:34:49.505Z,14.45
2017-03-21T09:35:49.563Z,14.3
2017-03-21T09:36:49.593Z,14.13
2017-03-21T09:37:49.611Z,14.05
2017-03-21T09:38:49.669Z,13.81
2017-03-21T09:39:49.702Z,13.72
2017-03-21T09:40:49.711Z,13.6
2017-03-21T09:41:49.761Z,13.68
2017-03-21T09:42:49.800Z,13.47
2017-03-21T09:43:49.820Z,13.36
2017-03-21T09:44:49.864Z,13.37
2017-03-21T09:45:49.894Z,13.17
2017-03-21T09:46:49.903Z,13.17
2017-03-21T09:47:49.947Z,13.07
2017-03-21T09:48:49.992Z,12.92
2017-03-21T09:49:50.088Z,12.83
2017-03-21T09:50:50.054Z,12.89
2017-03-21T09:51:50.081Z,12.73
2017-03-21T09:52:50.109Z,12.73
2017-03-21T09:53:50.137Z,12.71
2017-03-21T09:54:50.324Z,12.74
2017-03-21T09:55:50.202Z,12.71
2017-03-21T09:56:50.257Z,12.69
2017-03-21T09:57:50.292Z,12.73
2017-03-21T09:58:50.306Z,12.62
2017-03-21T09:59:50.451Z,12.63
2017-03-21T10:00:50.373Z,12.65
2017-03-21T10:01:50.397Z,12.65
2017-03-21T10:02:50.449Z,12.86
2017-03-21T10:03:50.490Z,12.91
2017-03-21T10:04:50.513Z,13.09
2017-03-21T10:05:50.580Z,13.21
2017-03-21T10:06:50.687Z,13.37
2017-03-21T10:07:50.617Z,13.47
2017-03-21T10:08:50.649Z,13.69
2017-03-21T10:09:50.683Z,13.7
2017-03-21T10:10:50.700Z,13.84
2017-03-21T10:11:50.747Z,14.05
2017-03-21T10:12:50.772Z,14.15
2017-03-21T10:13:50.831Z,14.31
2017-03-21T10:14:50.874Z,14.53
2017-03-21T10:15:50.882Z,14.52
2017-03-21T10:16:50.912Z,14.49
2017-03-21T10:17:50.938Z,14.28
2017-03-21T10:18:50.976Z,14.12
2017-03-21T10:19:51.012Z,13.97
2017-03-21T10:20:51.025Z,13.78
2017-03-21T10:21:51.054Z,13.6
2017-03-21T10:22:51.114Z,13.51
2017-03-21T10:23:51.121Z,13.2
2017-03-21T10:24:51.160Z,12.96
2017-03-21T10:25:51.212Z,12.62
2017-03-21T10:26:51.222Z,12.63
2017-03-21T10:27:51.270Z,12.51
2017-03-21T10:28:51.309Z,12.33
2017-03-21T10:29:51.317Z,12.33
2017-03-21T10:30:51.390Z,12.25
2017-03-21T10:31:51.402Z,12.23
2017-03-21T10:32:51.423Z,12.15
2017-03-21T10:33:51.478Z,12.23
2017-03-21T10:34:51.506Z,12.23
2017-03-21T10:35:51.506Z,12.26
2017-03-21T10:36:51.573Z,12.34
2017-03-21T10:37:51.587Z,12.28
2017-03-21T10:38:51.631Z,12.4
2017-03-21T10:39:51.678Z,12.59
2017-03-21T10:40:51.705Z,12.66
2017-03-21T10:41:51.711Z,12.81
2017-03-21T10:42:51.770Z,12.88
2017-03-21T10:43:51.793Z,12.95
2017-03-21T10:44:51.808Z,13.09
2017-03-21T10:45:51.857Z,13.17
2017-03-21T10:46:51.891Z,13.17
2017-03-21T10:47:51.900Z,13.17
2017-03-21T10:48:51.951Z,13.11
2017-03-21T10:49:51.985Z,13.14
2017-03-21T10:50:52.124Z,13.06
2017-03-21T10:51:52.032Z,12.98
2017-03-21T10:52:52.091Z,12.95
2017-03-21T10:53:52.117Z,12.84
2017-03-21T10:54:52.152Z,12.86
2017-03-21T10:55:52.289Z,12.83
2017-03-21T10:56:52.219Z,12.89
2017-03-21T10:57:52.233Z,12.96
2017-03-21T10:58:52.279Z,13.01
2017-03-21T10:59:52.311Z,13.02
2017-03-21T11:00:52.652Z,12.99
2017-03-21T11:01:52.379Z,12.96
2017-03-21T11:02:52.420Z,12.99
2017-03-21T11:03:52.443Z,13.1
2017-03-21T11:04:52.472Z,13.11
2017-03-21T11:05:52.531Z,13.14
2017-03-21T11:06:52.522Z,13.19
2017-03-21T11:07:52.570Z,13.16
2017-03-21T11:08:52.610Z,13.17
2017-03-21T11:09:52.627Z,13.14
2017-03-21T11:10:52.671Z,13.01
2017-03-21T11:11:52.701Z,13.03
2017-03-21T11:12:52.713Z,12.95
2017-03-21T11:13:52.774Z,12.96
2017-03-21T11:14:52.812Z,12.94
2017-03-21T11:15:52.810Z,13.06
2017-03-21T11:16:52.863Z,13.07
2017-03-21T11:17:52.902Z,13.06
2017-03-21T11:18:52.928Z,13.13
2017-03-21T11:19:52.964Z,13.14
2017-03-21T11:20:52.978Z,13.19
2017-03-21T11:21:53.033Z,13.29
2017-03-21T11:22:53.040Z,13.24
2017-03-21T11:23:53.101Z,13.35
2017-03-21T11:24:53.104Z,13.35
2017-03-21T11:25:53.144Z,13.37
2017-03-21T11:26:53.192Z,13.31
2017-03-21T11:27:53.228Z,13.31
2017-03-21T11:28:53.240Z,13.24
2017-03-21T11:29:53.285Z,13.19
2017-03-21T11:30:53.304Z,13.14
2017-03-21T11:31:53.330Z,13.1
2017-03-21T11:32:53.381Z,13.13
2017-03-21T11:33:53.431Z,13.09
2017-03-21T11:34:53.442Z,12.94
2017-03-21T11:35:53.489Z,13.01
2017-03-21T11:36:53.519Z,12.92
2017-03-21T11:37:53.546Z,12.92
2017-03-21T11:38:53.586Z,12.91
2017-03-21T11:39:53.611Z,12.94
2017-03-21T11:40:53.647Z,13.13
2017-03-21T11:41:53.683Z,13.03
2017-03-21T11:42:53.746Z,13.19
2017-03-21T11:43:53.748Z,13.16
2017-03-21T11:44:53.777Z,13.31
2017-03-21T11:45:53.818Z,13.25
2017-03-21T11:46:53.821Z,13.37
2017-03-21T11:47:53.884Z,13.35
2017-03-21T11:48:53.913Z,13.4
2017-03-21T11:49:53.939Z,13.35
2017-03-21T11:50:53.978Z,13.32
2017-03-21T11:51:54.005Z,13.39
2017-03-21T11:52:54.022Z,13.35
2017-03-21T11:53:54.078Z,13.2
2017-03-21T11:54:54.102Z,13.19
2017-03-21T11:55:54.107Z,13.21
2017-03-21T11:56:54.163Z,13.39
2017-03-21T11:57:54.207Z,13.32
2017-03-21T11:58:54.255Z,13.44
2017-03-21T11:59:54.353Z,13.35
2017-03-21T12:00:54.303Z,13.35
2017-03-21T12:01:54.338Z,13.4
2017-03-21T12:02:54.368Z,13.29
2017-03-21T12:03:54.403Z,13.13
2017-03-21T12:04:54.435Z,12.99
2017-03-21T12:05:54.452Z,12.94
2017-03-21T12:06:54.493Z,12.84
2017-03-21T12:07:54.525Z,12.74
2017-03-21T12:08:54.539Z,12.71
2017-03-21T12:09:54.582Z,12.69
2017-03-21T12:10:54.633Z,12.61
2017-03-21T12:11:54.655Z,12.53
2017-03-21T12:12:54.683Z,12.48
2017-03-21T12:13:54.725Z,12.47
2017-03-21T12:14:54.753Z,12.31
2017-03-21T12:15:54.783Z,12.36
2017-03-21T12:16:54.819Z,12.33
2017-03-21T12:17:54.838Z,12.31
2017-03-21T12:18:54.884Z,12.36
2017-03-21T12:19:54.913Z,12.45
2017-03-21T12:20:54.948Z,12.44
2017-03-21T12:21:54.974Z,12.43
2017-03-21T12:22:55.013Z,12.43
2017-03-21T12:23:55.051Z,12.47
2017-03-21T12:24:55.056Z,12.51
2017-03-21T12:25:55.101Z,12.53
2017-03-21T12:26:55.140Z,12.56
2017-03-21T12:27:55.164Z,12.61
2017-03-21T12:28:55.200Z,12.58
2017-03-21T12:29:55.235Z,12.61
2017-03-21T12:30:55.266Z,12.7
2017-03-21T12:31:55.307Z,12.66
2017-03-21T12:32:55.339Z,12.7
2017-03-21T12:33:55.348Z,12.66
2017-03-21T12:34:55.389Z,12.63
2017-03-21T12:35:55.444Z,12.61
2017-03-21T12:36:55.440Z,12.53
2017-03-21T12:37:55.462Z,12.59
2017-03-21T12:38:55.523Z,12.59
2017-03-21T12:39:55.553Z,12.62
2017-03-21T12:40:55.686Z,12.59
2017-03-21T12:41:55.633Z,12.62
2017-03-21T12:42:55.652Z,12.66
2017-03-21T12:43:55.722Z,12.62
2017-03-21T12:44:55.679Z,12.63
2017-03-21T12:45:56.103Z,12.69
2017-03-21T12:46:55.761Z,12.71
2017-03-21T12:47:55.777Z,12.69
2017-03-21T12:48:55.858Z,12.66
2017-03-21T12:49:55.865Z,12.63
2017-03-21T12:50:56.069Z,12.63
2017-03-21T12:51:55.927Z,12.61
2017-03-21T12:52:55.961Z,12.62
2017-03-21T12:53:56.007Z,12.58
2017-03-21T12:54:56.033Z,12.58
2017-03-21T12:55:56.049Z,12.58